Airfield :
LOGIN :

Register | Disclaimer

   EN    FR    IT 

 










Legend :    VFR   Marginal VFR   IFR   Intensive IFR   Very Intensive IFR
Visi :
Ceiling :
>= 8 km
>= 3000ft
5 to 8 km
1000 to 3000 ft
1500m to 5 km
500 to 1000 ft
800 to 1500m
200 to 500 ft
< 800m
< 200 ft
Symbols :   Thunderstorms  Fog  Heavy snow  Heavy precipitations  Wind > 20 kt
SIGMETs :     Misc.  Thunderstorms  Icing  Turbulence  Mountain Waves  Volcanic Ashes






- Airport Elevation : -11 ft
- IATA code : AMS


EHAM - Amsterdam Schiphol

CURRENT METAR :
  • 152025Z 19013KT CAVOK 06/03 Q1003 NOSIG

EXPIRED METARs :
  • 151955Z 20012KT 9999 FEW025 06/04 Q1003 NOSIG
  • 151925Z 21017KT 9999 FEW024 07/04 Q1002 NOSIG
  • 151855Z 20016KT 170V230 9999 FEW023CB 07/04 Q1002 TEMPO 7000 -SHRA
  • 151825Z 21016KT 9999 FEW024 07/04 Q1002 TEMPO 7000 -SHRA FEW025CB
  • 151755Z 21017KT 9999 FEW021 07/04 Q1001 TEMPO 7000 -SHRA FEW025CB

TAF TAF EHAM
Valid from the 15 at 18:00 until the 17 at 00:00 UTC


151724Z 1518/1624 21015KT 9999 FEW025
PROB30
TEMPO 1518/1521 23020G30KT 7000 -SHRA FEW020CB
BECMG 1602/1605 18011KT
PROB30
TEMPO 1606/1612 6000 BKN007
BECMG 1612/1615 7000 -RADZ SCT007 BKN040
PROB40
TEMPO 1612/1619 4500 DZRA BKN007
BECMG 1616/1619 14005KT 4000 -DZ BR BKN007
PROB30 1619/1624 2000 DZ BKN003



MET'MAP, your aeronautical weather chart ! - Copyright ORBIFLY December 2007 - Disclaimer

ORBIFLY MET'MAP TEAM :

Programming & Development : Alexandra Zaïnal
Concept & original design : Baudouin d'Aumeries
Assistance for programming : Marc-Olivier Méhu
Technical & hardware support : Manuel Goepfert

Contact : metmap@orbifly.com




SOURCES & CREDITS :

   NOAA